sensor_id;sensor_type;location;lat;lon;timestamp;P1;durP1;ratioP1;P2;durP2;ratioP2
32521;SDS011;18963;51.504;5.316;2023-04-29T00:00:45;45.85;;;21.00;;
32521;SDS011;18963;51.504;5.316;2023-04-29T00:03:11;39.35;;;17.45;;
32521;SDS011;18963;51.504;5.316;2023-04-29T00:08:02;33.67;;;15.82;;
32521;SDS011;18963;51.504;5.316;2023-04-29T00:10:28;39.88;;;16.92;;
32521;SDS011;18963;51.504;5.316;2023-04-29T00:15:19;34.80;;;15.07;;
32521;SDS011;18963;51.504;5.316;2023-04-29T00:20:11;37.90;;;16.33;;
32521;SDS011;18963;51.504;5.316;2023-04-29T00:25:03;37.42;;;16.13;;
32521;SDS011;18963;51.504;5.316;2023-04-29T00:27:29;37.08;;;18.55;;
32521;SDS011;18963;51.504;5.316;2023-04-29T00:32:21;35.10;;;15.23;;
32521;SDS011;18963;51.504;5.316;2023-04-29T00:37:12;35.10;;;16.30;;
32521;SDS011;18963;51.504;5.316;2023-04-29T00:42:03;33.95;;;15.25;;
32521;SDS011;18963;51.504;5.316;2023-04-29T00:46:54;32.53;;;14.75;;
32521;SDS011;18963;51.504;5.316;2023-04-29T00:51:45;31.90;;;15.13;;
32521;SDS011;18963;51.504;5.316;2023-04-29T00:54:12;29.00;;;15.02;;
32521;SDS011;18963;51.504;5.316;2023-04-29T00:59:05;30.38;;;14.65;;
32521;SDS011;18963;51.504;5.316;2023-04-29T01:01:33;30.30;;;13.70;;
32521;SDS011;18963;51.504;5.316;2023-04-29T01:03:59;28.27;;;13.93;;
32521;SDS011;18963;51.504;5.316;2023-04-29T01:06:29;27.88;;;14.88;;
32521;SDS011;18963;51.504;5.316;2023-04-29T01:09:13;29.48;;;14.55;;
32521;SDS011;18963;51.504;5.316;2023-04-29T01:14:53;30.20;;;14.23;;
32521;SDS011;18963;51.504;5.316;2023-04-29T01:17:30;29.00;;;13.88;;
32521;SDS011;18963;51.504;5.316;2023-04-29T01:20:01;27.60;;;13.95;;
32521;SDS011;18963;51.504;5.316;2023-04-29T01:22:30;32.15;;;15.00;;
32521;SDS011;18963;51.504;5.316;2023-04-29T01:36:20;30.33;;;15.30;;
32521;SDS011;18963;51.504;5.316;2023-04-29T01:39:02;29.40;;;15.63;;
32521;SDS011;18963;51.504;5.316;2023-04-29T01:42:04;31.55;;;16.42;;
32521;SDS011;18963;51.504;5.316;2023-04-29T01:44:26;33.88;;;15.68;;
32521;SDS011;18963;51.504;5.316;2023-04-29T01:46:55;32.45;;;14.82;;
32521;SDS011;18963;51.504;5.316;2023-04-29T01:49:26;33.45;;;15.45;;
32521;SDS011;18963;51.504;5.316;2023-04-29T01:51:52;32.58;;;15.40;;
32521;SDS011;18963;51.504;5.316;2023-04-29T01:56:43;33.78;;;15.23;;
32521;SDS011;18963;51.504;5.316;2023-04-29T01:59:10;37.88;;;16.83;;
32521;SDS011;18963;51.504;5.316;2023-04-29T02:04:01;33.03;;;16.48;;
32521;SDS011;18963;51.504;5.316;2023-04-29T02:08:52;38.55;;;16.65;;
32521;SDS011;18963;51.504;5.316;2023-04-29T02:11:18;35.70;;;15.73;;
32521;SDS011;18963;51.504;5.316;2023-04-29T02:16:09;32.25;;;16.55;;
32521;SDS011;18963;51.504;5.316;2023-04-29T02:18:36;37.88;;;17.65;;
32521;SDS011;18963;51.504;5.316;2023-04-29T02:23:27;39.60;;;17.77;;
32521;SDS011;18963;51.504;5.316;2023-04-29T02:25:53;41.15;;;18.05;;
32521;SDS011;18963;51.504;5.316;2023-04-29T02:30:44;32.65;;;16.85;;
32521;SDS011;18963;51.504;5.316;2023-04-29T02:33:10;40.72;;;18.05;;
32521;SDS011;18963;51.504;5.316;2023-04-29T02:35:36;41.13;;;18.85;;
32521;SDS011;18963;51.504;5.316;2023-04-29T02:38:01;46.55;;;21.58;;
32521;SDS011;18963;51.504;5.316;2023-04-29T02:40:27;37.03;;;17.80;;
32521;SDS011;18963;51.504;5.316;2023-04-29T02:45:18;42.40;;;19.13;;
32521;SDS011;18963;51.504;5.316;2023-04-29T02:47:44;39.40;;;18.00;;
32521;SDS011;18963;51.504;5.316;2023-04-29T02:52:35;36.15;;;17.30;;
32521;SDS011;18963;51.504;5.316;2023-04-29T02:57:27;41.78;;;18.33;;
32521;SDS011;18963;51.504;5.316;2023-04-29T02:59:53;44.60;;;19.02;;
32521;SDS011;18963;51.504;5.316;2023-04-29T03:04:44;38.35;;;18.08;;
32521;SDS011;18963;51.504;5.316;2023-04-29T03:07:10;41.03;;;18.58;;
32521;SDS011;18963;51.504;5.316;2023-04-29T03:12:01;38.67;;;17.98;;
32521;SDS011;18963;51.504;5.316;2023-04-29T03:16:53;42.20;;;17.90;;
32521;SDS011;18963;51.504;5.316;2023-04-29T03:19:20;41.40;;;18.38;;
32521;SDS011;18963;51.504;5.316;2023-04-29T03:24:11;41.22;;;18.30;;
32521;SDS011;18963;51.504;5.316;2023-04-29T03:26:37;37.92;;;17.42;;
32521;SDS011;18963;51.504;5.316;2023-04-29T03:31:28;42.13;;;17.67;;
32521;SDS011;18963;51.504;5.316;2023-04-29T03:33:53;36.80;;;16.38;;
32521;SDS011;18963;51.504;5.316;2023-04-29T03:38:45;37.72;;;16.23;;
32521;SDS011;18963;51.504;5.316;2023-04-29T03:43:36;39.75;;;17.77;;
32521;SDS011;18963;51.504;5.316;2023-04-29T03:48:27;38.22;;;16.20;;
32521;SDS011;18963;51.504;5.316;2023-04-29T03:50:53;36.15;;;16.60;;
32521;SDS011;18963;51.504;5.316;2023-04-29T03:55:45;41.35;;;17.73;;
32521;SDS011;18963;51.504;5.316;2023-04-29T03:58:12;33.88;;;16.52;;
32521;SDS011;18963;51.504;5.316;2023-04-29T04:00:38;36.65;;;15.90;;
32521;SDS011;18963;51.504;5.316;2023-04-29T04:05:29;32.00;;;15.65;;
32521;SDS011;18963;51.504;5.316;2023-04-29T04:07:55;36.15;;;16.67;;
32521;SDS011;18963;51.504;5.316;2023-04-29T04:12:47;33.83;;;15.50;;
32521;SDS011;18963;51.504;5.316;2023-04-29T04:17:38;35.58;;;14.45;;
32521;SDS011;18963;51.504;5.316;2023-04-29T04:22:29;33.70;;;15.10;;
32521;SDS011;18963;51.504;5.316;2023-04-29T04:27:20;34.33;;;14.80;;
32521;SDS011;18963;51.504;5.316;2023-04-29T04:32:11;35.40;;;16.02;;
32521;SDS011;18963;51.504;5.316;2023-04-29T04:37:06;31.02;;;14.88;;
32521;SDS011;18963;51.504;5.316;2023-04-29T04:39:32;28.85;;;14.73;;
32521;SDS011;18963;51.504;5.316;2023-04-29T04:44:23;32.35;;;14.50;;
32521;SDS011;18963;51.504;5.316;2023-04-29T04:49:17;33.65;;;15.60;;
32521;SDS011;18963;51.504;5.316;2023-04-29T04:54:09;26.53;;;14.17;;
32521;SDS011;18963;51.504;5.316;2023-04-29T04:56:34;30.80;;;13.05;;
32521;SDS011;18963;51.504;5.316;2023-04-29T04:59:01;30.48;;;13.82;;
32521;SDS011;18963;51.504;5.316;2023-04-29T05:03:53;26.75;;;13.43;;
32521;SDS011;18963;51.504;5.316;2023-04-29T05:08:44;26.23;;;13.77;;
32521;SDS011;18963;51.504;5.316;2023-04-29T05:13:45;28.15;;;13.50;;
32521;SDS011;18963;51.504;5.316;2023-04-29T05:16:11;34.08;;;16.23;;
32521;SDS011;18963;51.504;5.316;2023-04-29T05:21:02;30.83;;;13.80;;
32521;SDS011;18963;51.504;5.316;2023-04-29T05:25:53;27.85;;;15.10;;
32521;SDS011;18963;51.504;5.316;2023-04-29T05:30:44;32.25;;;14.75;;
32521;SDS011;18963;51.504;5.316;2023-04-29T05:33:10;29.90;;;14.80;;
32521;SDS011;18963;51.504;5.316;2023-04-29T05:38:02;29.35;;;14.63;;
32521;SDS011;18963;51.504;5.316;2023-04-29T05:40:27;26.88;;;13.80;;
32521;SDS011;18963;51.504;5.316;2023-04-29T05:45:19;26.52;;;13.98;;
32521;SDS011;18963;51.504;5.316;2023-04-29T05:47:44;29.77;;;14.43;;
32521;SDS011;18963;51.504;5.316;2023-04-29T05:50:10;27.15;;;13.65;;
32521;SDS011;18963;51.504;5.316;2023-04-29T05:52:36;26.88;;;14.13;;
32521;SDS011;18963;51.504;5.316;2023-04-29T05:55:02;26.85;;;13.77;;
32521;SDS011;18963;51.504;5.316;2023-04-29T05:59:53;26.23;;;13.77;;
32521;SDS011;18963;51.504;5.316;2023-04-29T06:02:23;27.15;;;14.45;;
32521;SDS011;18963;51.504;5.316;2023-04-29T06:07:15;28.92;;;14.57;;
32521;SDS011;18963;51.504;5.316;2023-04-29T06:09:42;24.80;;;13.05;;
32521;SDS011;18963;51.504;5.316;2023-04-29T06:12:08;27.50;;;13.32;;
32521;SDS011;18963;51.504;5.316;2023-04-29T06:16:59;27.17;;;12.95;;
32521;SDS011;18963;51.504;5.316;2023-04-29T06:19:26;27.52;;;13.90;;
32521;SDS011;18963;51.504;5.316;2023-04-29T06:24:17;27.77;;;13.48;;
32521;SDS011;18963;51.504;5.316;2023-04-29T06:26:42;26.58;;;13.30;;
32521;SDS011;18963;51.504;5.316;2023-04-29T06:29:08;26.80;;;14.02;;
32521;SDS011;18963;51.504;5.316;2023-04-29T06:31:34;25.15;;;12.65;;
32521;SDS011;18963;51.504;5.316;2023-04-29T06:33:59;26.77;;;12.77;;
32521;SDS011;18963;51.504;5.316;2023-04-29T06:38:52;26.15;;;14.23;;
32521;SDS011;18963;51.504;5.316;2023-04-29T06:41:17;25.20;;;12.15;;
32521;SDS011;18963;51.504;5.316;2023-04-29T06:43:43;26.33;;;13.27;;
32521;SDS011;18963;51.504;5.316;2023-04-29T06:46:09;27.10;;;14.60;;
32521;SDS011;18963;51.504;5.316;2023-04-29T06:48:35;28.75;;;12.80;;
32521;SDS011;18963;51.504;5.316;2023-04-29T06:51:00;26.27;;;13.90;;
32521;SDS011;18963;51.504;5.316;2023-04-29T06:53:26;27.60;;;14.20;;
32521;SDS011;18963;51.504;5.316;2023-04-29T06:55:52;29.45;;;14.50;;
32521;SDS011;18963;51.504;5.316;2023-04-29T06:58:17;25.80;;;12.80;;
32521;SDS011;18963;51.504;5.316;2023-04-29T07:00:44;26.92;;;13.90;;
32521;SDS011;18963;51.504;5.316;2023-04-29T07:03:15;26.08;;;14.43;;
32521;SDS011;18963;51.504;5.316;2023-04-29T07:05:43;22.25;;;12.52;;
32521;SDS011;18963;51.504;5.316;2023-04-29T07:08:12;25.30;;;13.02;;
32521;SDS011;18963;51.504;5.316;2023-04-29T07:10:38;25.13;;;13.48;;
32521;SDS011;18963;51.504;5.316;2023-04-29T07:15:32;23.25;;;12.23;;
32521;SDS011;18963;51.504;5.316;2023-04-29T07:17:59;22.77;;;12.60;;
32521;SDS011;18963;51.504;5.316;2023-04-29T07:22:51;25.92;;;12.40;;
32521;SDS011;18963;51.504;5.316;2023-04-29T07:25:16;25.70;;;12.80;;
32521;SDS011;18963;51.504;5.316;2023-04-29T07:27:42;22.30;;;12.38;;
32521;SDS011;18963;51.504;5.316;2023-04-29T07:30:08;27.88;;;12.82;;
32521;SDS011;18963;51.504;5.316;2023-04-29T07:32:34;24.05;;;13.10;;
32521;SDS011;18963;51.504;5.316;2023-04-29T07:34:59;20.15;;;12.15;;
32521;SDS011;18963;51.504;5.316;2023-04-29T07:37:25;20.77;;;12.07;;
32521;SDS011;18963;51.504;5.316;2023-04-29T07:39:51;23.95;;;11.35;;
32521;SDS011;18963;51.504;5.316;2023-04-29T07:42:17;23.27;;;11.82;;
32521;SDS011;18963;51.504;5.316;2023-04-29T07:44:42;21.65;;;12.00;;
32521;SDS011;18963;51.504;5.316;2023-04-29T07:47:09;22.83;;;12.88;;
32521;SDS011;18963;51.504;5.316;2023-04-29T07:49:38;21.88;;;11.43;;
32521;SDS011;18963;51.504;5.316;2023-04-29T07:52:04;21.95;;;12.40;;
32521;SDS011;18963;51.504;5.316;2023-04-29T07:54:30;23.30;;;12.80;;
32521;SDS011;18963;51.504;5.316;2023-04-29T07:56:56;22.73;;;12.65;;
32521;SDS011;18963;51.504;5.316;2023-04-29T07:59:22;18.70;;;11.48;;
32521;SDS011;18963;51.504;5.316;2023-04-29T08:01:48;20.10;;;10.43;;
32521;SDS011;18963;51.504;5.316;2023-04-29T08:04:14;21.48;;;11.05;;
32521;SDS011;18963;51.504;5.316;2023-04-29T08:06:39;24.75;;;12.23;;
32521;SDS011;18963;51.504;5.316;2023-04-29T08:09:08;22.48;;;11.10;;
32521;SDS011;18963;51.504;5.316;2023-04-29T08:11:34;18.20;;;10.95;;
32521;SDS011;18963;51.504;5.316;2023-04-29T08:14:00;20.65;;;11.50;;
32521;SDS011;18963;51.504;5.316;2023-04-29T08:16:26;19.08;;;11.25;;
32521;SDS011;18963;51.504;5.316;2023-04-29T08:18:52;18.33;;;10.85;;
32521;SDS011;18963;51.504;5.316;2023-04-29T08:21:18;18.42;;;11.40;;
32521;SDS011;18963;51.504;5.316;2023-04-29T08:23:44;19.10;;;11.23;;
32521;SDS011;18963;51.504;5.316;2023-04-29T08:26:10;17.90;;;10.45;;
32521;SDS011;18963;51.504;5.316;2023-04-29T08:28:37;21.05;;;11.07;;
32521;SDS011;18963;51.504;5.316;2023-04-29T08:31:03;18.00;;;9.80;;
32521;SDS011;18963;51.504;5.316;2023-04-29T08:33:31;18.73;;;10.23;;
32521;SDS011;18963;51.504;5.316;2023-04-29T08:35:57;19.80;;;10.88;;
32521;SDS011;18963;51.504;5.316;2023-04-29T08:38:27;17.92;;;11.05;;
32521;SDS011;18963;51.504;5.316;2023-04-29T08:40:53;17.83;;;9.90;;
32521;SDS011;18963;51.504;5.316;2023-04-29T08:43:20;16.70;;;10.35;;
32521;SDS011;18963;51.504;5.316;2023-04-29T08:45:47;16.65;;;10.13;;
32521;SDS011;18963;51.504;5.316;2023-04-29T08:48:14;19.90;;;10.48;;
32521;SDS011;18963;51.504;5.316;2023-04-29T08:50:40;19.38;;;10.55;;
32521;SDS011;18963;51.504;5.316;2023-04-29T08:53:07;20.00;;;11.07;;
32521;SDS011;18963;51.504;5.316;2023-04-29T08:55:43;15.75;;;10.10;;
32521;SDS011;18963;51.504;5.316;2023-04-29T08:58:10;18.75;;;10.95;;
32521;SDS011;18963;51.504;5.316;2023-04-29T09:00:37;22.15;;;11.25;;
32521;SDS011;18963;51.504;5.316;2023-04-29T09:03:16;17.85;;;10.00;;
32521;SDS011;18963;51.504;5.316;2023-04-29T09:05:45;16.92;;;10.02;;
32521;SDS011;18963;51.504;5.316;2023-04-29T09:08:14;19.13;;;10.85;;
32521;SDS011;18963;51.504;5.316;2023-04-29T09:10:41;18.00;;;10.88;;
32521;SDS011;18963;51.504;5.316;2023-04-29T09:13:07;13.50;;;9.15;;
32521;SDS011;18963;51.504;5.316;2023-04-29T09:15:36;17.45;;;9.77;;
32521;SDS011;18963;51.504;5.316;2023-04-29T09:18:04;18.65;;;10.05;;
32521;SDS011;18963;51.504;5.316;2023-04-29T09:20:29;17.00;;;8.68;;
32521;SDS011;18963;51.504;5.316;2023-04-29T09:22:56;14.50;;;8.40;;
32521;SDS011;18963;51.504;5.316;2023-04-29T09:25:27;14.55;;;9.05;;
32521;SDS011;18963;51.504;5.316;2023-04-29T09:27:53;12.63;;;8.27;;
32521;SDS011;18963;51.504;5.316;2023-04-29T09:30:20;14.13;;;7.95;;
32521;SDS011;18963;51.504;5.316;2023-04-29T09:33:06;13.60;;;8.82;;
32521;SDS011;18963;51.504;5.316;2023-04-29T09:35:32;15.48;;;9.13;;
32521;SDS011;18963;51.504;5.316;2023-04-29T09:38:08;15.18;;;9.20;;
32521;SDS011;18963;51.504;5.316;2023-04-29T09:40:38;15.18;;;9.55;;
32521;SDS011;18963;51.504;5.316;2023-04-29T09:43:13;12.02;;;9.32;;
32521;SDS011;18963;51.504;5.316;2023-04-29T09:45:44;15.05;;;9.52;;
32521;SDS011;18963;51.504;5.316;2023-04-29T09:48:11;14.13;;;9.77;;
32521;SDS011;18963;51.504;5.316;2023-04-29T09:50:38;15.23;;;8.98;;
32521;SDS011;18963;51.504;5.316;2023-04-29T09:53:06;18.85;;;10.05;;
32521;SDS011;18963;51.504;5.316;2023-04-29T09:55:36;16.88;;;10.18;;
32521;SDS011;18963;51.504;5.316;2023-04-29T09:58:29;15.32;;;10.15;;
32521;SDS011;18963;51.504;5.316;2023-04-29T10:01:00;15.38;;;9.68;;
32521;SDS011;18963;51.504;5.316;2023-04-29T10:03:37;14.95;;;9.68;;
32521;SDS011;18963;51.504;5.316;2023-04-29T10:06:03;13.27;;;9.10;;
32521;SDS011;18963;51.504;5.316;2023-04-29T10:08:30;14.13;;;9.05;;
32521;SDS011;18963;51.504;5.316;2023-04-29T10:11:01;13.00;;;9.50;;
32521;SDS011;18963;51.504;5.316;2023-04-29T10:13:27;13.82;;;8.80;;
32521;SDS011;18963;51.504;5.316;2023-04-29T10:18:54;15.15;;;9.02;;
32521;SDS011;18963;51.504;5.316;2023-04-29T10:21:26;12.88;;;8.52;;
32521;SDS011;18963;51.504;5.316;2023-04-29T10:23:56;15.35;;;8.52;;
32521;SDS011;18963;51.504;5.316;2023-04-29T10:26:32;13.35;;;8.98;;
32521;SDS011;18963;51.504;5.316;2023-04-29T10:29:01;10.57;;;7.97;;
32521;SDS011;18963;51.504;5.316;2023-04-29T10:31:28;10.60;;;8.07;;
32521;SDS011;18963;51.504;5.316;2023-04-29T10:33:56;11.52;;;8.18;;
32521;SDS011;18963;51.504;5.316;2023-04-29T10:36:26;12.45;;;7.80;;
32521;SDS011;18963;51.504;5.316;2023-04-29T10:38:54;11.35;;;7.20;;
32521;SDS011;18963;51.504;5.316;2023-04-29T10:41:32;11.18;;;7.22;;
32521;SDS011;18963;51.504;5.316;2023-04-29T10:44:01;12.32;;;7.80;;
32521;SDS011;18963;51.504;5.316;2023-04-29T10:46:28;9.18;;;7.10;;
32521;SDS011;18963;51.504;5.316;2023-04-29T10:49:00;11.10;;;7.90;;
32521;SDS011;18963;51.504;5.316;2023-04-29T10:53:57;14.55;;;8.55;;
32521;SDS011;18963;51.504;5.316;2023-04-29T10:56:51;11.15;;;7.90;;
32521;SDS011;18963;51.504;5.316;2023-04-29T11:01:52;12.15;;;8.18;;
32521;SDS011;18963;51.504;5.316;2023-04-29T11:04:19;9.18;;;7.60;;
32521;SDS011;18963;51.504;5.316;2023-04-29T11:06:53;10.82;;;8.35;;
32521;SDS011;18963;51.504;5.316;2023-04-29T11:14:33;10.98;;;7.50;;
32521;SDS011;18963;51.504;5.316;2023-04-29T11:17:01;12.27;;;7.80;;
32521;SDS011;18963;51.504;5.316;2023-04-29T11:24:47;11.50;;;6.07;;
32521;SDS011;18963;51.504;5.316;2023-04-29T11:27:25;11.25;;;6.65;;
32521;SDS011;18963;51.504;5.316;2023-04-29T11:29:55;11.07;;;6.00;;
32521;SDS011;18963;51.504;5.316;2023-04-29T11:32:27;10.98;;;7.50;;
32521;SDS011;18963;51.504;5.316;2023-04-29T11:34:54;11.65;;;6.85;;
32521;SDS011;18963;51.504;5.316;2023-04-29T11:37:31;10.75;;;6.28;;
32521;SDS011;18963;51.504;5.316;2023-04-29T11:39:58;10.55;;;6.43;;
32521;SDS011;18963;51.504;5.316;2023-04-29T11:42:25;9.18;;;6.47;;
32521;SDS011;18963;51.504;5.316;2023-04-29T11:44:51;10.05;;;6.70;;
32521;SDS011;18963;51.504;5.316;2023-04-29T11:47:18;10.88;;;6.60;;
32521;SDS011;18963;51.504;5.316;2023-04-29T11:49:45;11.85;;;7.05;;
32521;SDS011;18963;51.504;5.316;2023-04-29T11:52:11;8.77;;;6.53;;
32521;SDS011;18963;51.504;5.316;2023-04-29T11:54:37;10.38;;;6.53;;
32521;SDS011;18963;51.504;5.316;2023-04-29T11:57:05;11.02;;;6.53;;
32521;SDS011;18963;51.504;5.316;2023-04-29T11:59:31;9.23;;;6.80;;
32521;SDS011;18963;51.504;5.316;2023-04-29T12:01:57;10.00;;;6.95;;
32521;SDS011;18963;51.504;5.316;2023-04-29T12:04:24;10.60;;;6.55;;
32521;SDS011;18963;51.504;5.316;2023-04-29T12:06:50;8.93;;;6.50;;
32521;SDS011;18963;51.504;5.316;2023-04-29T12:09:20;10.38;;;6.63;;
32521;SDS011;18963;51.504;5.316;2023-04-29T12:11:46;8.68;;;5.85;;
32521;SDS011;18963;51.504;5.316;2023-04-29T12:14:14;7.95;;;6.32;;
32521;SDS011;18963;51.504;5.316;2023-04-29T12:16:39;9.15;;;6.20;;
32521;SDS011;18963;51.504;5.316;2023-04-29T12:19:05;8.00;;;6.10;;
32521;SDS011;18963;51.504;5.316;2023-04-29T12:21:32;8.70;;;6.22;;
32521;SDS011;18963;51.504;5.316;2023-04-29T12:23:58;10.40;;;6.13;;
32521;SDS011;18963;51.504;5.316;2023-04-29T12:26:27;8.65;;;6.35;;
32521;SDS011;18963;51.504;5.316;2023-04-29T12:28:55;10.20;;;6.18;;
32521;SDS011;18963;51.504;5.316;2023-04-29T12:31:22;7.80;;;5.82;;
32521;SDS011;18963;51.504;5.316;2023-04-29T12:33:48;9.65;;;5.32;;
32521;SDS011;18963;51.504;5.316;2023-04-29T12:36:17;9.57;;;6.07;;
32521;SDS011;18963;51.504;5.316;2023-04-29T12:38:44;8.52;;;6.03;;
32521;SDS011;18963;51.504;5.316;2023-04-29T12:41:11;9.45;;;5.90;;
32521;SDS011;18963;51.504;5.316;2023-04-29T12:43:40;9.20;;;6.13;;
32521;SDS011;18963;51.504;5.316;2023-04-29T12:46:06;8.25;;;6.30;;
32521;SDS011;18963;51.504;5.316;2023-04-29T12:48:34;10.30;;;5.80;;
32521;SDS011;18963;51.504;5.316;2023-04-29T12:51:08;8.35;;;5.28;;
32521;SDS011;18963;51.504;5.316;2023-04-29T12:53:34;7.47;;;5.55;;
32521;SDS011;18963;51.504;5.316;2023-04-29T12:56:00;9.15;;;5.53;;
32521;SDS011;18963;51.504;5.316;2023-04-29T12:58:28;8.30;;;6.60;;
32521;SDS011;18963;51.504;5.316;2023-04-29T13:00:55;7.00;;;5.40;;
32521;SDS011;18963;51.504;5.316;2023-04-29T13:03:21;8.48;;;6.22;;
32521;SDS011;18963;51.504;5.316;2023-04-29T13:05:46;6.68;;;5.95;;
32521;SDS011;18963;51.504;5.316;2023-04-29T13:08:15;6.55;;;4.68;;
32521;SDS011;18963;51.504;5.316;2023-04-29T13:10:41;7.78;;;4.85;;
32521;SDS011;18963;51.504;5.316;2023-04-29T13:13:07;6.97;;;4.45;;
32521;SDS011;18963;51.504;5.316;2023-04-29T13:15:34;7.18;;;5.18;;
32521;SDS011;18963;51.504;5.316;2023-04-29T13:18:00;6.45;;;4.70;;
32521;SDS011;18963;51.504;5.316;2023-04-29T13:20:26;7.38;;;5.15;;
32521;SDS011;18963;51.504;5.316;2023-04-29T13:22:52;8.75;;;4.53;;
32521;SDS011;18963;51.504;5.316;2023-04-29T13:25:18;6.43;;;5.25;;
32521;SDS011;18963;51.504;5.316;2023-04-29T13:27:43;8.98;;;5.47;;
32521;SDS011;18963;51.504;5.316;2023-04-29T13:30:09;7.97;;;5.15;;
32521;SDS011;18963;51.504;5.316;2023-04-29T13:32:35;8.55;;;5.70;;
32521;SDS011;18963;51.504;5.316;2023-04-29T13:35:01;7.45;;;4.95;;
32521;SDS011;18963;51.504;5.316;2023-04-29T13:37:28;6.90;;;5.00;;
32521;SDS011;18963;51.504;5.316;2023-04-29T13:39:53;9.50;;;5.10;;
32521;SDS011;18963;51.504;5.316;2023-04-29T13:42:19;7.68;;;4.65;;
32521;SDS011;18963;51.504;5.316;2023-04-29T13:44:45;8.45;;;4.68;;
32521;SDS011;18963;51.504;5.316;2023-04-29T13:47:11;6.88;;;4.53;;
32521;SDS011;18963;51.504;5.316;2023-04-29T13:49:40;6.97;;;4.60;;
32521;SDS011;18963;51.504;5.316;2023-04-29T13:52:08;8.05;;;5.20;;
32521;SDS011;18963;51.504;5.316;2023-04-29T13:54:37;6.85;;;4.25;;
32521;SDS011;18963;51.504;5.316;2023-04-29T13:57:03;6.97;;;4.60;;
32521;SDS011;18963;51.504;5.316;2023-04-29T13:59:33;6.20;;;4.80;;
32521;SDS011;18963;51.504;5.316;2023-04-29T14:02:00;8.63;;;4.75;;
32521;SDS011;18963;51.504;5.316;2023-04-29T14:04:26;6.75;;;4.30;;
32521;SDS011;18963;51.504;5.316;2023-04-29T14:06:53;6.82;;;4.40;;
32521;SDS011;18963;51.504;5.316;2023-04-29T14:09:19;6.50;;;3.78;;
32521;SDS011;18963;51.504;5.316;2023-04-29T14:11:45;8.40;;;5.10;;
32521;SDS011;18963;51.504;5.316;2023-04-29T14:14:12;7.50;;;4.57;;
32521;SDS011;18963;51.504;5.316;2023-04-29T14:16:37;8.20;;;4.93;;
32521;SDS011;18963;51.504;5.316;2023-04-29T14:19:03;6.85;;;4.72;;
32521;SDS011;18963;51.504;5.316;2023-04-29T14:21:29;8.10;;;4.78;;
32521;SDS011;18963;51.504;5.316;2023-04-29T14:23:57;6.55;;;4.43;;
32521;SDS011;18963;51.504;5.316;2023-04-29T14:26:29;7.38;;;3.72;;
32521;SDS011;18963;51.504;5.316;2023-04-29T14:28:56;6.55;;;4.47;;
32521;SDS011;18963;51.504;5.316;2023-04-29T14:31:43;5.72;;;4.10;;
32521;SDS011;18963;51.504;5.316;2023-04-29T14:34:08;6.90;;;4.93;;
32521;SDS011;18963;51.504;5.316;2023-04-29T14:36:34;6.13;;;4.43;;
32521;SDS011;18963;51.504;5.316;2023-04-29T14:39:00;6.30;;;4.88;;
32521;SDS011;18963;51.504;5.316;2023-04-29T14:41:26;7.13;;;4.90;;
32521;SDS011;18963;51.504;5.316;2023-04-29T14:43:52;7.53;;;4.60;;
32521;SDS011;18963;51.504;5.316;2023-04-29T14:46:18;9.43;;;4.65;;
32521;SDS011;18963;51.504;5.316;2023-04-29T14:48:44;6.60;;;4.80;;
32521;SDS011;18963;51.504;5.316;2023-04-29T14:51:10;7.90;;;4.68;;
32521;SDS011;18963;51.504;5.316;2023-04-29T14:53:36;6.38;;;4.40;;
32521;SDS011;18963;51.504;5.316;2023-04-29T14:56:01;5.90;;;4.18;;
32521;SDS011;18963;51.504;5.316;2023-04-29T14:58:27;6.68;;;4.35;;
32521;SDS011;18963;51.504;5.316;2023-04-29T15:00:53;7.90;;;4.35;;
32521;SDS011;18963;51.504;5.316;2023-04-29T15:03:20;6.10;;;4.20;;
32521;SDS011;18963;51.504;5.316;2023-04-29T15:05:46;5.35;;;4.30;;
32521;SDS011;18963;51.504;5.316;2023-04-29T15:08:13;7.05;;;4.25;;
32521;SDS011;18963;51.504;5.316;2023-04-29T15:10:39;8.90;;;4.38;;
32521;SDS011;18963;51.504;5.316;2023-04-29T15:13:04;6.10;;;3.80;;
32521;SDS011;18963;51.504;5.316;2023-04-29T15:15:30;7.75;;;4.80;;
32521;SDS011;18963;51.504;5.316;2023-04-29T15:17:56;7.85;;;4.63;;
32521;SDS011;18963;51.504;5.316;2023-04-29T15:20:21;8.15;;;4.55;;
32521;SDS011;18963;51.504;5.316;2023-04-29T15:22:47;7.25;;;4.50;;
32521;SDS011;18963;51.504;5.316;2023-04-29T15:25:13;6.95;;;4.30;;
32521;SDS011;18963;51.504;5.316;2023-04-29T15:27:38;7.38;;;4.40;;
32521;SDS011;18963;51.504;5.316;2023-04-29T15:30:04;6.20;;;4.32;;
32521;SDS011;18963;51.504;5.316;2023-04-29T15:32:30;7.03;;;4.28;;
32521;SDS011;18963;51.504;5.316;2023-04-29T15:35:00;6.70;;;4.20;;
32521;SDS011;18963;51.504;5.316;2023-04-29T15:37:27;6.72;;;4.78;;
32521;SDS011;18963;51.504;5.316;2023-04-29T15:39:59;6.90;;;4.88;;
32521;SDS011;18963;51.504;5.316;2023-04-29T15:42:26;6.70;;;4.97;;
32521;SDS011;18963;51.504;5.316;2023-04-29T15:44:51;7.68;;;4.55;;
32521;SDS011;18963;51.504;5.316;2023-04-29T15:47:17;7.22;;;4.40;;
32521;SDS011;18963;51.504;5.316;2023-04-29T15:49:43;7.05;;;4.72;;
32521;SDS011;18963;51.504;5.316;2023-04-29T15:52:09;7.32;;;4.88;;
32521;SDS011;18963;51.504;5.316;2023-04-29T15:54:34;5.80;;;4.30;;
32521;SDS011;18963;51.504;5.316;2023-04-29T15:57:00;6.65;;;4.65;;
32521;SDS011;18963;51.504;5.316;2023-04-29T15:59:29;6.50;;;4.70;;
32521;SDS011;18963;51.504;5.316;2023-04-29T16:01:55;6.05;;;4.45;;
32521;SDS011;18963;51.504;5.316;2023-04-29T16:04:21;6.95;;;4.63;;
32521;SDS011;18963;51.504;5.316;2023-04-29T16:06:47;6.22;;;4.30;;
32521;SDS011;18963;51.504;5.316;2023-04-29T16:09:12;7.03;;;4.32;;
32521;SDS011;18963;51.504;5.316;2023-04-29T16:11:38;5.10;;;4.13;;
32521;SDS011;18963;51.504;5.316;2023-04-29T16:14:04;6.32;;;5.03;;
32521;SDS011;18963;51.504;5.316;2023-04-29T16:16:30;7.85;;;4.25;;
32521;SDS011;18963;51.504;5.316;2023-04-29T16:18:55;5.03;;;4.05;;
32521;SDS011;18963;51.504;5.316;2023-04-29T16:21:21;7.40;;;4.85;;
32521;SDS011;18963;51.504;5.316;2023-04-29T16:23:47;7.47;;;4.57;;
32521;SDS011;18963;51.504;5.316;2023-04-29T16:26:13;7.75;;;4.05;;
32521;SDS011;18963;51.504;5.316;2023-04-29T16:28:38;5.53;;;4.25;;
32521;SDS011;18963;51.504;5.316;2023-04-29T16:31:04;7.10;;;5.00;;
32521;SDS011;18963;51.504;5.316;2023-04-29T16:33:30;6.15;;;4.60;;
32521;SDS011;18963;51.504;5.316;2023-04-29T16:35:56;6.85;;;4.30;;
32521;SDS011;18963;51.504;5.316;2023-04-29T16:38:24;5.78;;;4.75;;
32521;SDS011;18963;51.504;5.316;2023-04-29T16:40:50;5.88;;;3.92;;
32521;SDS011;18963;51.504;5.316;2023-04-29T16:43:16;6.03;;;4.13;;
32521;SDS011;18963;51.504;5.316;2023-04-29T16:45:43;5.45;;;4.00;;
32521;SDS011;18963;51.504;5.316;2023-04-29T16:48:08;7.40;;;4.88;;
32521;SDS011;18963;51.504;5.316;2023-04-29T16:50:34;6.10;;;4.35;;
32521;SDS011;18963;51.504;5.316;2023-04-29T16:53:01;6.30;;;4.18;;
32521;SDS011;18963;51.504;5.316;2023-04-29T16:55:30;6.25;;;4.38;;
32521;SDS011;18963;51.504;5.316;2023-04-29T16:57:56;7.13;;;3.97;;
32521;SDS011;18963;51.504;5.316;2023-04-29T17:00:21;6.43;;;4.47;;
32521;SDS011;18963;51.504;5.316;2023-04-29T17:02:48;6.97;;;4.88;;
32521;SDS011;18963;51.504;5.316;2023-04-29T17:05:14;8.85;;;5.00;;
32521;SDS011;18963;51.504;5.316;2023-04-29T17:07:42;6.70;;;4.95;;
32521;SDS011;18963;51.504;5.316;2023-04-29T17:10:08;10.48;;;5.88;;
32521;SDS011;18963;51.504;5.316;2023-04-29T17:12:34;9.68;;;5.57;;
32521;SDS011;18963;51.504;5.316;2023-04-29T17:14:59;9.35;;;6.28;;